• Join FlightAware (Why Join?)
  • Login
  • US Flag 
05:18PM EDT


 

Airport Tracker/Info


-or-


 

Live Flight TrackerFlight Track Log ✈ SKW6432 ✈ 06-Jul-2013 ✈ KORD - KMLI

Flight Track Log - Related Links

Times and Time Zones

All times are in EDT time to prevent confusion due to time zone crossing. See the SKW6432 flight status page for this flight to view local times or setup timezone preferences in your user account.

Time Position Orientation Groundspeed Altitude Reporting Facility
EDT Latitude Longitude Course Direction KTS MPH feet Rate Location/Type
10:54PM 41.9667 -87.9500 270° West 183 211 2,300  Level Chicago TRACON
10:55PM 41.9667 -88.0333 270° West 232 267 4,700 2,520 Climbing Chicago TRACON
10:57PM 41.9492 -88.1803 261° West 269 310 8,800 2,520 Climbing Chicago Center
10:58PM 41.9386 -88.2911 263° West 296 341 11,200 2,100 Climbing Chicago Center
10:59PM 41.9289 -88.4164 264° West 331 381 13,100 1,920 Climbing Chicago Center
11:00PM 41.9667 -88.4625 270° West  Level FlightAware Approximate
11:00PM 41.9075 -88.5500 258° West 370 426 15,200  Level Chicago Center
11:01PM 41.8761 -88.6881 253° West 389 448 16,100 420 Climbing Chicago Center
11:02PM 41.8422 -88.8400 253° West 425 489 16,100  Level Chicago Center
11:03PM 41.8078 -88.9914 253° West 429 494 16,100  Level Chicago Center
11:04PM 41.7742 -89.1397 253° West 422 486 16,100  Level Chicago Center
11:05PM 41.7353 -89.3111 253° West 408 470 16,100 -300 Level Chicago Center
11:06PM 41.7000 -89.4608 253° West 422 486 15,500 -1,140 Descending Chicago Center
11:07PM 41.6694 -89.5986 254° West 412 474 13,900 -1,500 Descending Chicago Center
11:08PM 41.6361 -89.7367 252° West 396 456 12,500 -1,440 Descending Chicago Center
11:09PM 41.6031 -89.8722 252° West 388 447 11,000 -1,080 Descending Chicago Center
11:10PM 41.5719 -89.9861 250° West 330 380 10,400 -1,380 Descending Chicago Center
11:11PM 41.5414 -90.0819 247° West 286 329 8,300 -2,220 Descending Chicago Center
11:12PM 41.5111 -90.1775 247° West 281 323 6,000 -2,280 Descending Chicago Center
11:13PM 41.4833 -90.2672 248° West 270 311 3,800 -1,860 Descending Chicago Center
11:14PM 41.4553 -90.3533 247° West 263 303 2,300 -1,020 Descending Chicago Center
11:15PM 41.4489 -90.4131 262° West 208 239 1,800 -480 Descending Chicago Center
11:16PM 41.4472 -90.4667 268° West 179 206 1,400 -420 Descending Chicago Center